Time;durP1;ratioP1;P1;durP2;ratioP2;P2;SDS_P1;SDS_P2;PMS_P1;PMS_P2;Temp;Humidity;BMP_temperature;BMP_pressure;BME280_temperature;BME280_humidity;BME280_pressure;Samples;Min_cycle;Max_cycle;Signal;HPM_P1;HPM_P2
2022/04/21 00:01:00;;;;;;;3.90;1.98;;;;;;;8.49;66.63;100385.22;4993790;28;20448;-68
2022/04/21 00:04:04;;;;;;;5.20;1.55;;;;;;;8.69;65.59;100384.28;4994003;28;20419;-68
2022/04/21 00:07:07;;;;;;;5.25;1.60;;;;;;;8.53;66.01;100382.38;4992856;28;20103;-68
2022/04/21 00:10:12;;;;;;;7.00;2.47;;;;;;;8.32;66.73;100383.31;5000877;28;20405;-68
2022/04/21 00:13:15;;;;;;;3.72;1.40;;;;;;;8.20;67.44;100382.13;5000992;28;20044;-68
2022/04/21 00:16:19;;;;;;;;;;;;;;;8.15;67.97;100377.13;5013549;28;20041;-68
2022/04/21 00:19:22;;;;;;;5.82;1.70;;;;;;;8.19;67.62;100377.81;5009831;28;19921;-67
2022/04/21 00:25:48;;;;;;;4.13;1.48;;;;;;;8.09;67.79;100372.19;5013052;28;20348;-67
2022/04/21 00:28:52;;;;;;;3.40;1.63;;;;;;;8.36;66.70;100372.72;5012815;28;20108;-68
2022/04/21 00:31:56;;;;;;;4.22;1.80;;;;;;;8.04;67.68;100368.94;5013315;28;20084;-67
2022/04/21 00:35:01;;;;;;;4.38;1.70;;;;;;;8.05;67.79;100369.78;5013155;28;20065;-67
2022/04/21 00:38:04;;;;;;;4.57;1.52;;;;;;;8.16;67.52;100359.72;5011413;28;20436;-67
2022/04/21 00:41:07;;;;;;;3.05;1.60;;;;;;;7.91;68.47;100357.34;5013067;28;20045;-68
2022/04/21 00:44:11;;;;;;;5.93;1.48;;;;;;;7.67;69.71;100365.34;5000839;28;20098;-68
2022/04/21 00:47:14;;;;;;;13.68;2.70;;;;;;;7.59;69.84;100361.34;5012845;28;20052;-68
2022/04/21 00:50:24;;;;;;;;;;;;;;;7.61;70.17;100360.38;5013297;28;20037;-68
2022/04/21 00:53:28;;;;;;;3.80;2.05;;;;;;;7.62;69.89;100364.66;5012692;28;19920;-68
2022/04/21 00:56:32;;;;;;;4.50;1.63;;;;;;;7.78;69.67;100361.41;5012894;28;20217;-68
2022/04/21 00:59:37;;;;;;;3.60;1.58;;;;;;;7.68;69.55;100356.59;5012499;28;20052;-67
2022/04/21 01:02:46;;;;;;;5.60;2.33;;;;;;;7.54;69.93;100358.97;5000815;28;20397;-68
2022/04/21 01:05:50;;;;;;;3.42;1.92;;;;;;;7.34;70.62;100357.19;5012636;28;20088;-68
2022/04/21 01:08:53;;;;;;;7.38;2.10;;;;;;;7.25;70.43;100361.94;5010706;28;20077;-68
2022/04/21 01:11:56;;;;;;;;;;;;;;;7.29;70.39;100363.50;5012840;28;20096;-68
2022/04/21 01:15:00;;;;;;;4.45;1.92;;;;;;;7.41;70.29;100352.59;5012757;28;19920;-68
2022/04/21 01:18:03;;;;;;;;;;;;;;;7.50;69.47;100357.41;5013189;28;20049;-67
2022/04/21 01:21:07;;;;;;;4.35;2.22;;;;;;;7.26;70.04;100363.63;5016566;28;19924;-68
2022/04/21 01:24:10;;;;;;;6.28;2.72;;;;;;;7.48;69.24;100358.38;5016402;28;20053;-68
2022/04/21 01:27:13;;;;;;;8.23;3.60;;;;;;;7.46;69.15;100361.03;5016409;28;20049;-68
2022/04/21 01:30:19;;;;;;;5.32;2.38;;;;;;;7.19;70.22;100353.47;5016645;28;20044;-67
2022/04/21 01:33:22;;;;;;;;;;;;;;;7.01;70.43;100351.59;5016930;28;20044;-67
2022/04/21 01:36:27;;;;;;;5.22;2.20;;;;;;;7.02;70.48;100342.91;5016466;28;19920;-68
2022/04/21 01:42:53;;;;;;;5.90;2.20;;;;;;;6.90;71.15;100344.25;4996661;28;20069;-68
2022/04/21 01:45:56;;;;;;;4.35;2.10;;;;;;;6.82;71.26;100342.84;4996590;28;20053;-68
2022/04/21 01:48:59;;;;;;;;;;;;;;;6.67;71.29;100350.38;4996977;28;20049;-68
2022/04/21 01:52:04;;;;;;;3.45;2.10;;;;;;;6.61;71.04;100337.59;4996358;28;19921;-68
2022/04/21 01:55:07;;;;;;;4.70;2.00;;;;;;;6.78;70.91;100346.50;4996314;28;20529;-68
2022/04/21 01:58:11;;;;;;;5.15;2.45;;;;;;;6.66;71.12;100353.84;4996631;28;20053;-68
2022/04/21 02:01:14;;;;;;;4.75;2.30;;;;;;;6.53;71.07;100352.63;4995439;28;20048;-68
2022/04/21 02:04:18;;;;;;;;;;;;;;;6.90;69.88;100344.25;4996946;28;20054;-68
2022/04/21 02:07:24;;;;;;;4.35;2.15;;;;;;;6.66;70.83;100342.63;5002683;28;19936;-67
2022/04/21 02:10:27;;;;;;;3.47;2.28;;;;;;;6.59;70.99;100338.56;5015541;28;20417;-67
2022/04/21 02:13:30;;;;;;;6.38;3.00;;;;;;;6.58;71.02;100334.28;5015704;28;20503;-68
2022/04/21 02:16:34;;;;;;;6.03;2.40;;;;;;;6.39;71.76;100339.34;5015707;28;20126;-67
2022/04/21 02:19:38;;;;;;;4.50;2.80;;;;;;;6.32;71.89;100330.06;5015471;28;20500;-67
2022/04/21 02:22:42;;;;;;;6.07;2.85;;;;;;;6.35;71.99;100323.03;5015516;28;20048;-67
2022/04/21 02:25:45;;;;;;;5.63;2.65;;;;;;;6.31;72.04;100330.97;5015706;28;20563;-68
2022/04/21 02:28:49;;;;;;;6.68;2.38;;;;;;;6.23;71.79;100329.53;5015353;28;20438;-68
2022/04/21 02:31:52;;;;;;;;;;;;;;;6.14;72.11;100332.47;5015052;28;20044;-68
2022/04/21 02:34:56;;;;;;;;;;;;;;;6.15;71.94;100336.72;5015878;28;19920;-67
2022/04/21 02:38:00;;;;;;;5.10;2.75;;;;;;;6.16;71.57;100325.47;5013452;28;19968;-68
2022/04/21 02:41:04;;;;;;;6.20;2.67;;;;;;;6.12;72.02;100328.22;5015055;28;20421;-68
2022/04/21 02:44:07;;;;;;;;;;;;;;;6.24;71.82;100328.59;5003387;28;20097;-68
2022/04/21 02:47:10;;;;;;;5.57;2.88;;;;;;;6.22;71.17;100316.59;5015202;28;19921;-68
2022/04/21 02:50:16;;;;;;;7.60;3.10;;;;;;;6.46;70.35;100318.25;5014886;28;20061;-68
2022/04/21 02:57:19;;;;;;;5.82;2.60;;;;;;;6.31;70.88;100312.81;5014856;28;20084;-68
2022/04/21 03:00:07;;;;;;;5.25;2.60;;;;;;;6.27;71.04;100315.50;5014780;28;19939;-67
2022/04/21 03:03:10;;;;;;;5.82;3.10;;;;;;;6.09;71.90;100311.00;5014975;28;20092;-67
2022/04/21 03:06:14;;;;;;;5.97;3.35;;;;;;;5.91;72.50;100314.25;5013024;28;20107;-67
2022/04/21 03:09:17;;;;;;;7.40;2.80;;;;;;;5.94;72.41;100301.22;5014667;28;20084;-69
2022/04/21 03:12:26;;;;;;;4.90;2.63;;;;;;;5.96;72.49;100305.41;5039998;28;20036;-67
2022/04/21 03:15:30;;;;;;;5.85;2.83;;;;;;;5.97;71.84;100301.09;5039842;28;20060;-68
2022/04/21 03:18:33;;;;;;;4.93;2.97;;;;;;;5.83;72.37;100302.38;5002232;28;20393;-67
2022/04/21 03:25:00;;;;;;;5.78;2.80;;;;;;;5.58;73.18;100310.22;5014346;28;20135;-67
2022/04/21 03:28:04;;;;;;;6.25;3.03;;;;;;;5.55;73.02;100312.06;5039703;28;20041;-68
2022/04/21 03:31:08;;;;;;;6.35;2.60;;;;;;;5.61;73.31;100306.66;5030723;28;20474;-68
2022/04/21 03:34:14;;;;;;;;;;;;;;;5.63;73.08;100307.47;5005297;28;20073;-67
2022/04/21 03:37:19;;;;;;;5.30;3.05;;;;;;;5.55;73.23;100309.47;4994634;28;20372;-67
2022/04/21 03:40:22;;;;;;;6.15;3.15;;;;;;;5.62;73.01;100312.72;4994420;28;20459;-67
2022/04/21 03:43:26;;;;;;;8.60;3.15;;;;;;;5.70;72.52;100314.13;4993568;28;20133;-67
2022/04/21 03:46:30;;;;;;;8.15;2.92;;;;;;;5.60;72.75;100320.53;4994212;28;20053;-67
2022/04/21 03:49:33;;;;;;;4.22;2.97;;;;;;;5.52;73.06;100320.81;4994256;28;20509;-67
2022/04/21 03:52:37;;;;;;;4.95;2.92;;;;;;;5.36;73.19;100320.50;4994108;28;20135;-67
2022/04/21 03:55:40;;;;;;;;;;;;;;;5.43;72.79;100317.69;4996222;28;20101;-67
2022/04/21 03:58:43;;;;;;;4.93;3.25;;;;;;;5.35;73.30;100317.94;4989669;28;20308;-67
2022/04/21 04:01:47;;;;;;;4.25;2.17;;;;;;;5.35;73.00;100308.41;4989122;28;20504;-67
2022/04/21 04:04:50;;;;;;;5.45;2.53;;;;;;;5.57;72.37;100313.69;5002005;28;20049;-67
2022/04/21 04:11:15;;;;;;;6.57;3.45;;;;;;;5.32;73.33;100321.47;5002406;28;20475;-68
2022/04/21 04:14:21;;;;;;;;;;;;;;;5.22;73.25;100321.84;4997385;28;20048;-67
2022/04/21 04:17:24;;;;;;;5.95;3.13;;;;;;;5.10;73.54;100321.34;4991547;28;19941;-68
2022/04/21 04:20:27;;;;;;;;;;;;;;;5.34;72.91;100319.69;4989256;28;20109;-68
2022/04/21 04:23:32;;;;;;;;;;;;;;;5.23;73.16;100326.13;4989588;28;20068;-68
2022/04/21 04:26:35;;;;;;;6.03;3.03;;;;;;;5.17;73.32;100322.00;4989445;28;19920;-68
2022/04/21 04:29:38;;;;;;;;;;;;;;;5.16;73.50;100330.66;4981818;28;20048;-68
2022/04/21 04:32:42;;;;;;;6.55;2.88;;;;;;;5.19;73.63;100327.13;4993349;28;20410;-68
2022/04/21 04:35:45;;;;;;;7.72;3.05;;;;;;;5.17;74.12;100329.78;5016418;28;20136;-68
2022/04/21 04:38:50;;;;;;;4.50;2.97;;;;;;;5.13;73.67;100330.75;5012810;28;20441;-68
2022/04/21 04:48:37;;;;;;;8.18;2.45;;;;;;;5.03;74.14;100326.78;5012843;28;20053;-68
2022/04/21 04:51:42;;;;;;;5.82;2.75;;;;;;;5.03;73.92;100324.19;5012994;28;20092;-68
2022/04/21 04:54:45;;;;;;;5.85;3.20;;;;;;;5.21;73.35;100325.34;5000041;28;20409;-68
2022/04/21 04:57:49;;;;;;;6.40;3.00;;;;;;;5.31;72.82;100321.53;5023515;28;20049;-68
2022/04/21 05:00:53;;;;;;;5.90;2.83;;;;;;;5.35;72.52;100333.50;5012702;28;20057;-68
2022/04/21 05:04:06;;;;;;;5.57;2.67;;;;;;;5.31;73.05;100327.56;5012235;28;20057;-68
2022/04/21 05:07:10;;;;;;;5.35;2.45;;;;;;;5.50;72.04;100324.34;5012818;28;20211;-68
2022/04/21 05:10:18;;;;;;;5.65;2.80;;;;;;;5.49;72.03;100326.09;5000400;28;20092;-68
2022/04/21 05:13:23;;;;;;;4.80;2.83;;;;;;;5.45;72.22;100332.28;5012789;28;20051;-68
2022/04/21 05:16:27;;;;;;;7.53;2.60;;;;;;;5.36;72.37;100325.69;5012618;28;20142;-68
2022/04/21 05:19:31;;;;;;;4.65;2.55;;;;;;;5.59;71.83;100324.03;5000397;28;20056;-68
2022/04/21 05:22:39;;;;;;;5.53;3.38;;;;;;;5.77;71.28;100325.97;5012775;28;20651;-68
2022/04/21 05:25:44;;;;;;;6.05;2.88;;;;;;;5.80;71.20;100323.25;5012600;28;20076;-68
2022/04/21 05:28:48;;;;;;;4.32;2.85;;;;;;;5.56;72.17;100318.97;5012287;28;20041;-68
2022/04/21 05:32:02;;;;;;;5.55;2.85;;;;;;;5.48;72.32;100323.53;5012113;28;20378;-68
2022/04/21 05:35:07;;;;;;;4.78;2.67;;;;;;;5.52;72.54;100319.94;4973627;28;20049;-68
2022/04/21 05:38:11;;;;;;;12.13;3.05;;;;;;;5.88;71.20;100320.41;4973742;28;20174;-68
2022/04/21 05:41:18;;;;;;;7.03;2.60;;;;;;;6.08;70.60;100324.06;4973531;28;20403;-68
2022/04/21 05:44:23;;;;;;;7.75;2.72;;;;;;;5.96;71.48;100327.94;4973436;28;20140;-68
2022/04/21 05:47:28;;;;;;;4.72;2.85;;;;;;;6.08;71.07;100322.28;4973077;28;20073;-68
2022/04/21 05:50:33;;;;;;;6.10;3.15;;;;;;;5.91;72.18;100328.09;4973182;28;20054;-68
2022/04/21 05:54:03;;;;;;;5.10;3.63;;;;;;;5.96;71.74;100323.59;4975530;28;20049;-67
2022/04/21 05:57:07;;;;;;;6.63;2.65;;;;;;;6.08;71.33;100317.09;4972949;28;20050;-68
2022/04/21 06:00:11;;;;;;;6.22;3.55;;;;;;;6.13;71.29;100323.00;4973295;28;20050;-68
2022/04/21 06:03:18;;;;;;;4.00;2.50;;;;;;;6.12;71.51;100318.69;4991734;28;20092;-68
2022/04/21 06:06:21;;;;;;;6.82;3.45;;;;;;;6.35;70.38;100315.25;5015585;28;20076;-68
2022/04/21 06:09:24;;;;;;;5.70;3.38;;;;;;;6.28;70.70;100311.16;5003320;28;20104;-68
2022/04/21 06:12:27;;;;;;;8.98;2.88;;;;;;;6.28;70.74;100314.59;5015470;28;20049;-68
2022/04/21 06:15:31;;;;;;;7.60;2.67;;;;;;;6.35;70.31;100306.56;5015385;28;20052;-68
2022/04/21 06:18:38;;;;;;;6.05;3.42;;;;;;;6.49;69.57;100312.94;5015383;28;20160;-68
2022/04/21 06:21:41;;;;;;;7.55;3.60;;;;;;;6.45;69.68;100306.19;5015273;28;20133;-68
2022/04/21 06:24:44;;;;;;;6.55;3.17;;;;;;;6.53;69.99;100300.69;5003384;28;20133;-68
2022/04/21 06:27:50;;;;;;;10.55;3.20;;;;;;;6.69;69.54;100300.91;5015489;28;20040;-67
2022/04/21 06:30:53;;;;;;;4.55;3.00;;;;;;;6.88;69.08;100295.84;5015068;28;20136;-67
2022/04/21 06:33:58;;;;;;;5.10;2.92;;;;;;;7.15;68.21;100297.31;5013551;28;20049;-68
2022/04/21 06:37:01;;;;;;;7.85;3.33;;;;;;;7.18;68.37;100299.78;5015333;28;20452;-67
2022/04/21 06:40:05;;;;;;;7.10;2.83;;;;;;;7.20;68.53;100292.75;5015342;28;20129;-67
2022/04/21 06:49:52;;;;;;;5.20;2.92;;;;;;;7.53;67.59;100279.22;5016031;28;20172;-68
2022/04/21 06:52:55;;;;;;;5.45;2.88;;;;;;;7.69;67.40;100285.44;5015174;28;20049;-68
2022/04/21 06:55:59;;;;;;;7.03;3.58;;;;;;;7.75;66.62;100281.69;5014928;28;20137;-68
2022/04/21 06:59:02;;;;;;;5.07;3.42;;;;;;;7.90;66.49;100280.19;5014907;28;20052;-68
2022/04/21 07:02:09;;;;;;;7.07;3.97;;;;;;;8.08;65.34;100281.13;5013310;28;20041;-67
2022/04/21 07:05:14;;;;;;;5.60;3.28;;;;;;;7.82;67.59;100280.53;5014707;28;20088;-68
2022/04/21 07:08:17;;;;;;;5.93;2.85;;;;;;;8.04;67.20;100280.41;5014822;28;20045;-68
2022/04/21 07:11:22;;;;;;;8.13;3.70;;;;;;;8.09;66.66;100270.63;5002517;28;20557;-68
2022/04/21 07:14:28;;;;;;;5.93;2.60;;;;;;;8.21;67.01;100265.78;5002326;28;20060;-71
2022/04/21 07:17:33;;;;;;;9.38;3.53;;;;;;;8.50;66.82;100269.63;5014582;28;20061;-70
2022/04/21 07:20:40;;;;;;;9.93;3.38;;;;;;;8.97;64.60;100272.53;5018357;28;20096;-72
2022/04/21 07:23:43;;;;;;;4.72;3.25;;;;;;;9.13;63.03;100266.56;5029790;28;20120;-70
2022/04/21 07:26:47;;;;;;;6.32;3.22;;;;;;;9.11;62.76;100263.19;5036720;28;20076;-69
2022/04/21 07:29:51;;;;;;;5.05;2.47;;;;;;;9.22;61.38;100266.06;5017415;28;20104;-68
2022/04/21 07:32:55;;;;;;;;;;;;;;;9.37;61.37;100264.47;5001726;28;20097;-69
2022/04/21 07:35:58;;;;;;;;;;;;;;;9.53;60.77;100270.56;4996314;28;19941;-68
2022/04/21 07:39:01;;;;;;;6.30;2.80;;;;;;;9.60;59.98;100268.47;5020901;28;19916;-68
2022/04/21 07:42:10;;;;;;;4.15;2.20;;;;;;;9.66;59.57;100269.00;5013929;28;20054;-70
2022/04/21 07:45:13;;;;;;;4.47;2.60;;;;;;;9.63;58.31;100271.78;4995530;28;20049;-69
2022/04/21 07:48:18;;;;;;;6.20;2.38;;;;;;;9.65;58.33;100258.66;4992836;28;20069;-68
2022/04/21 07:51:22;;;;;;;7.88;2.95;;;;;;;9.78;58.26;100257.91;4992007;28;20051;-69
2022/04/21 07:54:26;;;;;;;8.50;2.95;;;;;;;9.93;58.57;100261.47;4993306;28;20049;-68
2022/04/21 07:57:31;;;;;;;9.10;3.20;;;;;;;9.94;58.03;100260.56;4992914;28;20061;-68
2022/04/21 08:00:37;;;;;;;9.52;3.03;;;;;;;10.08;58.88;100253.72;4990952;28;20505;-68
2022/04/21 08:03:43;;;;;;;10.85;3.55;;;;;;;10.14;58.10;100256.00;4985441;28;20057;-69
2022/04/21 08:06:47;;;;;;;6.80;3.28;;;;;;;10.17;57.81;100255.84;4990655;28;20045;-67
2022/04/21 08:09:50;;;;;;;9.38;3.15;;;;;;;10.23;57.92;100253.72;4996304;28;20224;-68
2022/04/21 08:12:54;;;;;;;;;;;;;;;10.28;58.13;100258.75;5011364;28;20519;-67
2022/04/21 08:15:58;;;;;;;4.32;2.75;;;;;;;10.35;57.59;100254.88;5011743;28;19959;-68
2022/04/21 08:19:02;;;;;;;4.60;2.80;;;;;;;10.35;56.93;100257.47;5009916;28;20095;-68
2022/04/21 08:22:06;;;;;;;4.60;2.95;;;;;;;10.39;56.40;100251.16;5009780;28;20566;-67
2022/04/21 08:35:15;;;;;;;6.55;2.50;;;;;;;10.80;55.62;100247.97;5013143;28;20076;-68
2022/04/21 08:38:18;;;;;;;;;;;;;;;10.93;56.22;100259.41;5013539;28;20053;-68
2022/04/21 08:41:26;;;;;;;8.73;2.60;;;;;;;11.01;55.00;100252.88;5012613;28;19959;-68
2022/04/21 08:44:33;;;;;;;6.75;2.63;;;;;;;11.10;54.92;100247.97;5012947;28;20045;-68
2022/04/21 08:47:39;;;;;;;8.85;2.65;;;;;;;11.12;55.29;100250.47;5013039;28;20525;-68
2022/04/21 08:50:43;;;;;;;13.20;3.10;;;;;;;11.26;54.83;100241.81;5012661;28;20048;-68
2022/04/21 08:53:46;;;;;;;;;;;;;;;11.20;54.25;100231.69;5000920;28;20041;-68
2022/04/21 08:56:50;;;;;;;6.03;2.88;;;;;;;11.34;55.46;100231.72;5012753;28;19921;-68
2022/04/21 08:59:54;;;;;;;6.43;2.70;;;;;;;11.41;53.89;100233.03;5012654;28;20068;-68
2022/04/21 09:02:59;;;;;;;4.85;2.67;;;;;;;11.45;53.76;100231.06;5000500;28;20054;-68
2022/04/21 09:06:03;;;;;;;7.82;2.88;;;;;;;11.46;53.40;100219.69;5012447;28;20080;-68
2022/04/21 09:09:21;;;;;;;5.72;2.70;;;;;;;11.33;53.68;100228.28;5012510;28;20156;-68
2022/04/21 09:12:24;;;;;;;8.30;2.38;;;;;;;11.20;54.71;100227.34;4992685;28;20523;-68
2022/04/21 09:15:31;;;;;;;4.88;2.65;;;;;;;11.61;54.78;100221.34;4992767;28;20049;-68
2022/04/21 09:18:40;;;;;;;4.45;2.67;;;;;;;11.81;54.05;100220.13;4992876;28;20045;-68
2022/04/21 09:21:44;;;;;;;6.40;2.40;;;;;;;11.65;53.52;100222.84;4992712;28;20058;-68
2022/04/21 09:24:47;;;;;;;;;;;;;;;11.62;53.52;100220.44;4993049;28;20049;-68
2022/04/21 09:27:50;;;;;;;11.83;3.13;;;;;;;11.57;54.05;100212.00;4992738;28;19920;-68
2022/04/21 09:31:00;;;;;;;6.40;2.78;;;;;;;11.57;54.14;100215.47;4992119;28;20402;-69
2022/04/21 09:34:04;;;;;;;6.70;3.00;;;;;;;11.73;54.31;100204.88;4991746;28;20052;-68
2022/04/21 09:37:10;;;;;;;6.63;3.00;;;;;;;11.92;54.18;100195.91;4991626;28;20060;-68
2022/04/21 09:40:15;;;;;;;8.85;2.72;;;;;;;12.10;52.36;100197.38;4994785;28;20084;-68
2022/04/21 09:43:29;;;;;;;10.88;2.70;;;;;;;12.13;52.81;100194.56;4996227;28;20041;-69
2022/04/21 09:46:34;;;;;;;3.83;2.45;;;;;;;12.38;52.10;100188.56;4996729;28;20108;-68
2022/04/21 09:49:41;;;;;;;9.65;2.83;;;;;;;12.59;51.89;100186.31;4996436;28;20398;-68
2022/04/21 09:52:47;;;;;;;4.55;2.50;;;;;;;12.57;50.90;100190.81;4996222;28;20124;-68
2022/04/21 09:55:52;;;;;;;3.72;2.30;;;;;;;12.40;51.34;100188.47;4996313;28;20505;-69
2022/04/21 09:58:56;;;;;;;4.68;2.58;;;;;;;12.61;51.63;100187.06;4995912;28;20052;-69
2022/04/21 10:02:02;;;;;;;6.60;3.17;;;;;;;12.52;50.65;100187.66;4975029;28;20049;-69
2022/04/21 10:05:06;;;;;;;7.55;2.45;;;;;;;12.58;50.53;100176.75;4989564;28;20100;-69
2022/04/21 10:08:10;;;;;;;5.80;2.10;;;;;;;12.83;48.19;100175.13;4972400;28;20554;-69
2022/04/21 10:11:16;;;;;;;5.18;2.10;;;;;;;12.93;48.01;100165.69;5003983;28;20508;-69
2022/04/21 10:14:20;;;;;;;5.40;1.63;;;;;;;13.01;46.94;100164.22;5011925;28;20461;-69
2022/04/21 10:17:23;;;;;;;6.25;1.60;;;;;;;13.01;45.78;100155.50;5011897;28;20554;-69
2022/04/21 10:20:29;;;;;;;4.82;1.40;;;;;;;13.24;45.23;100153.91;4983641;28;20052;-69
2022/04/21 10:23:35;;;;;;;4.07;1.50;;;;;;;13.28;43.86;100146.72;5011735;28;20078;-69
2022/04/21 10:26:41;;;;;;;5.15;1.50;;;;;;;13.53;43.43;100154.56;5011187;28;20053;-69
2022/04/21 10:29:52;;;;;;;6.72;1.38;;;;;;;13.35;40.83;100140.09;5010772;28;20052;-69
2022/04/21 10:32:58;;;;;;;6.43;1.42;;;;;;;13.41;42.16;100137.03;5010636;28;20100;-69
2022/04/21 10:36:01;;;;;;;4.18;1.50;;;;;;;13.55;41.40;100134.25;5010226;28;20377;-69
2022/04/21 10:39:17;;;;;;;4.82;1.83;;;;;;;13.51;42.18;100135.44;5014433;28;20040;-69
2022/04/21 10:42:21;;;;;;;2.70;1.27;;;;;;;13.60;42.88;100126.91;5014592;28;20108;-69
2022/04/21 10:45:27;;;;;;;3.92;1.40;;;;;;;13.57;41.53;100132.38;5013277;28;20053;-69
2022/04/21 10:48:41;;;;;;;6.32;1.50;;;;;;;13.54;41.70;100127.34;5014775;28;20071;-69
2022/04/21 10:58:34;;;;;;;3.35;1.60;;;;;;;13.80;41.54;100111.50;5014660;28;20044;-69
2022/04/21 11:01:38;;;;;;;6.72;2.33;;;;;;;14.09;41.16;100112.00;5013761;28;20472;-69
2022/04/21 11:05:30;;;;;;;3.65;1.80;;;;;;;14.27;40.24;100113.28;5014857;28;20048;-69
2022/04/21 11:08:34;;;;;;;3.80;1.52;;;;;;;14.38;40.29;100110.69;5014001;28;20044;-69
2022/04/21 11:11:47;;;;;;;5.88;1.95;;;;;;;14.51;41.03;100104.53;5014441;28;20187;-69
2022/04/21 11:14:50;;;;;;;3.35;1.25;;;;;;;14.43;40.15;100108.56;5014440;28;20108;-69
2022/04/21 11:18:14;;;;;;;3.95;1.50;;;;;;;14.47;40.69;100109.16;5013253;28;20164;-69
2022/04/21 11:21:27;;;;;;;4.60;1.35;;;;;;;14.53;40.07;100092.94;5013837;28;20104;-68
2022/04/21 11:24:55;;;;;;;5.03;1.70;;;;;;;14.49;40.67;100107.25;5014240;28;20064;-68
2022/04/21 11:28:01;;;;;;;3.83;1.50;;;;;;;14.67;41.93;100099.78;5014112;28;20045;-68
2022/04/21 11:31:05;;;;;;;6.38;1.55;;;;;;;14.87;40.79;100090.38;5012480;28;20040;-68
2022/04/21 11:34:08;;;;;;;3.15;1.75;;;;;;;14.86;40.59;100093.94;5035852;28;20040;-68
2022/04/21 11:37:11;;;;;;;3.92;1.63;;;;;;;14.76;40.81;100091.19;5038675;28;20052;-68
2022/04/21 11:40:26;;;;;;;4.70;1.50;;;;;;;14.57;40.79;100093.56;5013865;28;20129;-68
2022/04/21 11:43:31;;;;;;;3.35;1.55;;;;;;;14.64;41.86;100090.34;5014141;28;20409;-68
2022/04/21 11:46:39;;;;;;;4.15;1.55;;;;;;;14.69;41.50;100081.25;5013687;28;20049;-68
2022/04/21 11:49:58;;;;;;;5.63;1.83;;;;;;;14.71;41.20;100077.56;5037567;28;20061;-68
2022/04/21 11:53:12;;;;;;;3.58;1.33;;;;;;;14.46;40.68;100073.28;5028991;28;20508;-68
2022/04/21 11:56:16;;;;;;;8.07;1.50;;;;;;;14.71;41.36;100063.53;5012872;28;20624;-68
2022/04/21 11:59:19;;;;;;;7.93;1.58;;;;;;;14.99;42.17;100063.09;5010280;28;20088;-67
2022/04/21 12:09:17;;;;;;;7.25;1.80;;;;;;;15.39;40.48;100049.41;5011952;28;20107;-68
2022/04/21 12:12:22;;;;;;;5.60;1.83;;;;;;;15.63;39.33;100037.84;4993156;28;20057;-68
2022/04/21 12:15:29;;;;;;;6.80;1.75;;;;;;;15.33;40.00;100034.09;4993347;28;20108;-68
2022/04/21 12:18:49;;;;;;;5.07;1.70;;;;;;;15.42;41.21;100037.81;4993579;28;20053;-68
2022/04/21 12:22:01;;;;;;;4.32;1.60;;;;;;;15.97;41.26;100034.16;4993741;28;20112;-68
2022/04/21 12:25:11;;;;;;;5.68;1.83;;;;;;;16.34;41.18;100030.28;4994548;28;20184;-68
2022/04/21 12:28:14;;;;;;;6.65;1.70;;;;;;;16.30;39.56;100027.03;4994200;28;20053;-68
2022/04/21 12:31:19;;;;;;;6.18;1.77;;;;;;;16.52;40.48;100026.06;4994004;28;20065;-68
2022/04/21 12:34:39;;;;;;;7.80;1.55;;;;;;;17.17;39.73;100013.47;4993988;28;20045;-68
2022/04/21 12:37:50;;;;;;;3.22;1.55;;;;;;;17.47;38.11;100011.69;4993971;28;20386;-68
2022/04/21 12:40:55;;;;;;;4.75;1.67;;;;;;;17.86;38.69;100008.13;4993980;28;20050;-68
2022/04/21 12:44:00;;;;;;;2.63;1.30;;;;;;;17.81;37.89;100006.91;4993351;28;20049;-68
2022/04/21 12:47:03;;;;;;;5.05;1.70;;;;;;;18.08;37.54;100008.81;4993444;28;20053;-68
2022/04/21 12:50:09;;;;;;;5.65;1.52;;;;;;;18.18;36.72;99998.22;4981457;28;20049;-68
2022/04/21 12:53:27;;;;;;;3.95;1.55;;;;;;;17.98;37.21;100008.00;4993685;28;20045;-68
2022/04/21 12:56:35;;;;;;;6.38;1.73;;;;;;;18.71;35.19;99995.84;4993171;28;20041;-68
2022/04/21 12:59:40;;;;;;;4.57;1.50;;;;;;;18.81;35.70;99985.25;4980413;28;20045;-68
2022/04/21 13:02:43;;;;;;;3.95;1.50;;;;;;;19.19;34.98;99984.19;4992742;28;20134;-68
2022/04/21 13:05:49;;;;;;;3.72;1.75;;;;;;;19.05;34.90;99982.06;4993160;28;20397;-68
2022/04/21 13:08:54;;;;;;;3.22;1.27;;;;;;;19.05;34.93;99967.00;4992989;28;20050;-68
2022/04/21 13:11:57;;;;;;;6.57;1.73;;;;;;;19.43;34.43;99970.38;4993325;28;20509;-68
2022/04/21 13:15:04;;;;;;;3.70;1.20;;;;;;;19.04;35.24;99975.09;4992532;28;20101;-69
2022/04/21 13:18:07;;;;;;;3.63;1.45;;;;;;;18.86;35.64;99960.94;4993091;28;20041;-68
2022/04/21 13:24:32;;;;;;;6.03;1.77;;;;;;;18.77;35.28;99952.91;4993074;28;20096;-69
2022/04/21 13:27:35;;;;;;;6.18;1.70;;;;;;;18.90;36.10;99949.94;4992496;28;20136;-69
2022/04/21 13:30:39;;;;;;;5.63;1.85;;;;;;;18.86;35.55;99940.63;4992551;28;20053;-69
2022/04/21 13:33:43;;;;;;;4.88;1.77;;;;;;;18.47;36.79;99945.19;4994220;28;20049;-69
2022/04/21 13:36:47;;;;;;;5.80;1.40;;;;;;;19.29;34.97;99939.91;4991865;28;20473;-69
2022/04/21 13:39:51;;;;;;;3.55;1.20;;;;;;;20.54;32.55;99933.59;4992471;28;20045;-69
2022/04/21 13:42:54;;;;;;;9.27;1.73;;;;;;;20.75;32.34;99925.22;4992277;28;20050;-69
2022/04/21 13:45:58;;;;;;;3.83;1.40;;;;;;;23.46;28.36;99917.66;4993150;28;20049;-69
2022/04/21 13:49:02;;;;;;;7.60;1.77;;;;;;;22.92;28.16;99916.63;4993293;28;20112;-69
2022/04/21 13:52:07;;;;;;;3.72;1.23;;;;;;;25.15;25.06;99914.34;4993499;28;20096;-69
2022/04/21 13:55:11;;;;;;;3.40;1.63;;;;;;;24.99;24.60;99918.06;4993246;28;20500;-69
2022/04/21 13:58:14;;;;;;;3.63;1.35;;;;;;;25.39;24.52;99926.53;4991886;28;20041;-69
2022/04/21 14:01:18;;;;;;;4.85;1.73;;;;;;;27.40;22.93;99903.38;4992149;28;20457;-67
2022/04/21 14:04:22;;;;;;;3.30;1.15;;;;;;;27.97;21.66;99900.09;4992541;28;20509;-67
2022/04/21 14:07:25;;;;;;;5.78;1.35;;;;;;;26.16;24.13;99905.16;4992542;28;20049;-67
2022/04/21 14:10:29;;;;;;;7.10;1.33;;;;;;;27.84;22.26;99908.16;5001547;28;20045;-67
2022/04/21 14:13:32;;;;;;;4.75;1.70;;;;;;;22.81;27.98;99909.00;5011880;28;20048;-67
2022/04/21 14:16:37;;;;;;;6.88;2.40;;;;;;;23.94;26.82;99911.06;5010953;28;20099;-67
2022/04/21 14:19:41;;;;;;;4.75;1.40;;;;;;;22.90;28.19;99907.94;5011408;28;20126;-67
2022/04/21 14:22:44;;;;;;;2.30;1.20;;;;;;;25.40;25.38;99901.41;5012028;28;20108;-67
2022/04/21 14:25:48;;;;;;;6.63;1.25;;;;;;;24.19;26.01;99895.63;5011944;28;20497;-67
2022/04/21 14:28:51;;;;;;;2.55;1.15;;;;;;;23.07;27.99;99907.88;5013538;28;20457;-67
2022/04/21 14:31:55;;;;;;;3.47;1.00;;;;;;;20.46;32.06;99899.00;5015232;28;20040;-67
2022/04/21 14:34:59;;;;;;;3.70;1.20;;;;;;;22.60;29.27;99890.13;5015198;28;20108;-67
2022/04/21 14:44:46;;;;;;;4.05;1.30;;;;;;;19.21;34.86;99894.78;5015003;28;20104;-67
2022/04/21 14:47:50;;;;;;;3.05;1.13;;;;;;;18.34;37.06;99908.47;5015059;28;20049;-67
2022/04/21 14:50:53;;;;;;;5.20;1.67;;;;;;;17.83;38.05;99899.97;5014770;28;20075;-67
2022/04/21 14:53:57;;;;;;;5.30;1.40;;;;;;;17.70;38.63;99899.41;5014679;28;20196;-67
2022/04/21 14:57:00;;;;;;;4.18;1.73;;;;;;;20.12;33.71;99889.19;5002463;28;20406;-67
2022/04/21 15:00:05;;;;;;;5.63;1.35;;;;;;;22.52;29.43;99875.81;5014203;28;20096;-67
2022/04/21 15:03:08;;;;;;;5.07;1.40;;;;;;;19.46;34.31;99879.09;5014641;28;20515;-67
2022/04/21 15:06:14;;;;;;;5.00;1.33;;;;;;;18.71;36.11;99878.50;5014383;28;20052;-67
2022/04/21 15:09:17;;;;;;;4.63;1.42;;;;;;;17.96;37.73;99882.97;5013136;28;20057;-67
2022/04/21 15:12:21;;;;;;;3.83;1.20;;;;;;;17.22;38.99;99894.97;5013483;28;20068;-67
2022/04/21 15:15:24;;;;;;;5.28;1.15;;;;;;;17.33;39.48;99888.75;5014354;28;20149;-67
2022/04/21 15:18:29;;;;;;;4.60;1.00;;;;;;;17.52;39.54;99891.38;5014294;28;20462;-67
2022/04/21 15:21:36;;;;;;;2.97;0.98;;;;;;;17.30;39.26;99895.13;5014539;28;20121;-67
2022/04/21 15:24:41;;;;;;;2.40;1.15;;;;;;;17.09;39.79;99891.78;5013950;28;20196;-67
2022/04/21 15:27:45;;;;;;;2.30;0.80;;;;;;;17.04;40.02;99893.97;5012327;28;20048;-67
2022/04/21 15:30:48;;;;;;;2.90;1.10;;;;;;;20.42;34.15;99871.09;5014003;28;20045;-67
2022/04/21 15:33:52;;;;;;;3.72;1.33;;;;;;;24.60;27.51;99863.09;5014368;28;20543;-67
2022/04/21 15:36:56;;;;;;;3.55;1.20;;;;;;;25.72;25.25;99860.72;5006492;28;20197;-68
2022/04/21 15:40:03;;;;;;;3.53;1.30;;;;;;;27.08;23.54;99847.56;4974597;28;20037;-69